Time;durP1;ratioP1;P1;durP2;ratioP2;P2;SDS_P1;SDS_P2;PMS_P1;PMS_P2;Temp;Humidity;BMP_temperature;BMP_pressure;BME280_temperature;BME280_humidity;BME280_pressure;Samples;Min_cycle;Max_cycle;Signal;HPM_P1;HPM_P2
2021/04/03 00:00:42;;;;;;;2.85;1.50;;;;;;;12.09;46.38;99787.38;1797715;79;21137;-80
2021/04/03 00:03:11;;;;;;;1.90;1.72;;;;;;;12.06;46.31;99784.55;1797805;79;21636;-79
2021/04/03 00:05:38;;;;;;;2.55;1.62;;;;;;;12.05;46.36;99788.77;1797722;79;21486;-79
2021/04/03 00:08:07;;;;;;;1.90;1.70;;;;;;;12.04;46.34;99782.56;1797845;79;21519;-80
2021/04/03 00:10:57;;;;;;;2.47;1.85;;;;;;;12.06;46.30;99790.42;1797644;79;21082;-81
2021/04/03 00:13:28;;;;;;;1.75;1.65;;;;;;;12.06;46.27;99785.89;1797786;79;21050;-78
2021/04/03 00:15:56;;;;;;;2.27;1.72;;;;;;;12.05;46.27;99794.97;1797753;79;21082;-79
2021/04/03 00:18:24;;;;;;;2.00;1.80;;;;;;;12.02;46.25;99796.66;1797638;79;21114;-79
2021/04/03 00:20:52;;;;;;;1.75;1.55;;;;;;;12.00;46.24;99796.54;1797695;79;21122;-78
2021/04/03 00:23:20;;;;;;;2.35;2.02;;;;;;;12.01;46.17;99796.86;1797643;79;21637;-79
2021/04/03 00:25:48;;;;;;;2.17;1.70;;;;;;;11.99;46.16;99797.05;1797730;79;21094;-79
2021/04/03 00:28:15;;;;;;;3.02;2.02;;;;;;;11.97;46.13;99799.06;1797656;79;21068;-80
2021/04/03 00:30:43;;;;;;;2.10;1.90;;;;;;;11.95;46.13;99793.06;1797669;79;21556;-79
2021/04/03 00:33:10;;;;;;;2.40;1.92;;;;;;;11.92;46.16;99795.59;1797668;79;21114;-80
2021/04/03 00:35:42;;;;;;;2.05;1.80;;;;;;;11.92;46.19;99787.54;1797634;79;21082;-80
2021/04/03 00:38:11;;;;;;;2.80;2.20;;;;;;;11.91;46.12;99803.84;1797690;79;21138;-80
2021/04/03 00:43:28;;;;;;;2.12;1.60;;;;;;;11.92;46.21;99809.52;1817105;77;22633;-79
2021/04/03 00:45:56;;;;;;;2.00;1.77;;;;;;;11.90;46.23;99815.59;1816779;79;21142;-79
2021/04/03 00:48:23;;;;;;;;;;;;;;;11.91;46.24;99819.42;1823230;78;21184;-79
2021/04/03 00:50:53;;;;;;;2.02;1.80;;;;;;;11.91;46.21;99817.25;1820668;78;20132;-78
2021/04/03 00:53:24;;;;;;;2.02;1.80;;;;;;;11.91;46.27;99814.06;1793276;78;21479;-79
2021/04/03 00:55:57;;;;;;;2.50;2.30;;;;;;;11.91;46.26;99810.55;1787846;80;21170;-78
2021/04/03 00:58:26;;;;;;;3.42;1.77;;;;;;;11.91;46.22;99815.41;1783006;80;21121;-79
2021/04/03 01:00:53;;;;;;;2.90;1.60;;;;;;;11.92;46.19;99820.26;1788307;80;21478;-80
2021/04/03 01:03:23;;;;;;;3.22;2.00;;;;;;;11.92;46.15;99821.59;1816851;79;21095;-79
2021/04/03 01:05:52;;;;;;;2.47;1.95;;;;;;;11.92;46.04;99818.91;1816872;79;21048;-80
2021/04/03 01:08:19;;;;;;;2.72;1.87;;;;;;;11.91;45.96;99821.28;1829039;76;21057;-80
2021/04/03 01:10:53;;;;;;;2.12;1.90;;;;;;;11.89;45.92;99815.25;1819539;76;21120;-80
2021/04/03 01:13:46;;;;;;;2.30;1.82;;;;;;;11.89;45.87;99813.91;1819953;76;21466;-79
2021/04/03 01:16:37;;;;;;;2.33;1.70;;;;;;;11.88;45.81;99820.30;1816513;79;21136;-80
2021/04/03 01:19:36;;;;;;;1.87;1.77;;;;;;;11.86;45.82;99815.63;1817060;79;21196;-78
2021/04/03 01:22:10;;;;;;;2.02;1.70;;;;;;;11.84;45.80;99817.13;1816739;79;21139;-80
2021/04/03 01:25:34;;;;;;;2.30;1.80;;;;;;;11.84;45.79;99817.64;1816180;79;21494;-79
2021/04/03 01:28:45;;;;;;;2.33;1.95;;;;;;;11.83;45.81;99824.03;1816780;79;21041;-80
2021/04/03 01:31:12;;;;;;;2.37;1.72;;;;;;;11.82;45.84;99823.69;1816748;78;21080;-79
2021/04/03 01:33:44;;;;;;;2.98;1.92;;;;;;;11.81;45.93;99830.04;1788102;79;21060;-79
2021/04/03 01:36:18;;;;;;;4.58;1.90;;;;;;;11.82;45.94;99829.05;1817031;79;21048;-80
2021/04/03 01:39:04;;;;;;;2.08;1.82;;;;;;;11.84;46.02;99833.23;1836291;77;21576;-80
2021/04/03 01:41:33;;;;;;;2.35;1.80;;;;;;;11.87;46.11;99838.25;1850325;77;21050;-80
2021/04/03 01:44:01;;;;;;;2.58;1.90;;;;;;;11.90;46.13;99835.21;1850150;77;21078;-79
2021/04/03 01:46:34;;;;;;;1.70;1.57;;;;;;;11.92;46.09;99829.65;1849763;77;21046;-79
2021/04/03 01:49:06;;;;;;;2.15;1.87;;;;;;;11.92;46.00;99830.99;1850160;77;21081;-79
2021/04/03 01:51:33;;;;;;;2.20;1.80;;;;;;;11.91;45.92;99834.19;1850176;77;21180;-80
2021/04/03 01:54:03;;;;;;;2.20;1.98;;;;;;;11.93;45.88;99829.97;1849742;77;21520;-80
2021/04/03 01:56:31;;;;;;;6.10;4.10;;;;;;;11.95;45.87;99834.66;1849487;77;21086;-80
2021/04/03 01:59:00;;;;;;;7.58;4.92;;;;;;;11.95;45.83;99838.69;1849741;77;21470;-80
2021/04/03 02:01:28;;;;;;;5.28;3.95;;;;;;;11.95;45.79;99838.69;1849583;77;21524;-78
2021/04/03 02:03:57;;;;;;;3.83;2.92;;;;;;;11.95;45.98;99839.20;1849535;77;21553;-79
2021/04/03 02:06:26;;;;;;;3.02;2.65;;;;;;;11.96;46.06;99837.66;1849510;77;21623;-80
2021/04/03 02:09:09;;;;;;;5.20;2.62;;;;;;;11.95;46.07;99841.37;1848331;77;21129;-79
2021/04/03 02:11:42;;;;;;;2.95;2.45;;;;;;;11.98;46.12;99845.02;1836549;76;21169;-79
2021/04/03 02:14:12;;;;;;;2.67;2.35;;;;;;;11.98;46.15;99852.23;1832840;77;21052;-79
2021/04/03 02:16:41;;;;;;;3.77;3.20;;;;;;;11.99;46.14;99851.21;1816083;79;21056;-78
2021/04/03 02:19:11;;;;;;;4.33;3.92;;;;;;;11.98;46.00;99850.89;1787627;80;21089;-79
2021/04/03 02:21:39;;;;;;;4.12;3.70;;;;;;;11.96;46.05;99845.72;1786966;79;21529;-79
2021/04/03 02:24:09;;;;;;;6.00;3.72;;;;;;;11.97;46.11;99843.35;1815986;79;21553;-79
2021/04/03 02:26:36;;;;;;;8.03;6.92;;;;;;;11.99;46.19;99840.47;1787401;79;21558;-79
2021/04/03 02:29:06;;;;;;;7.62;5.47;;;;;;;12.01;46.13;99838.46;1786894;79;21155;-80
2021/04/03 02:31:34;;;;;;;6.85;6.15;;;;;;;12.03;46.03;99845.30;1759026;80;21132;-80
2021/04/03 02:34:04;;;;;;;10.70;8.60;;;;;;;12.04;46.07;99844.30;1816057;78;21166;-80
2021/04/03 02:36:34;;;;;;;8.23;7.42;;;;;;;12.07;46.04;99837.72;1815955;79;21124;-80
2021/04/03 02:39:03;;;;;;;5.33;4.83;;;;;;;12.08;46.07;99842.92;1815897;79;21626;-80
2021/04/03 02:41:48;;;;;;;4.35;3.30;;;;;;;12.10;46.00;99843.56;1730381;80;21073;-80
2021/04/03 02:44:34;;;;;;;3.52;3.15;;;;;;;12.12;46.00;99854.11;1814635;79;21181;-79
2021/04/03 02:47:20;;;;;;;5.58;4.10;;;;;;;12.10;46.07;99852.96;1814788;79;21205;-79
2021/04/03 02:50:01;;;;;;;4.05;3.22;;;;;;;12.11;46.10;99855.96;1813882;79;21669;-80
2021/04/03 02:52:30;;;;;;;3.25;2.72;;;;;;;12.11;46.10;99855.13;1814805;79;21173;-81
2021/04/03 02:54:57;;;;;;;3.85;2.37;;;;;;;12.07;46.12;99853.31;1755459;79;21670;-80
2021/04/03 02:57:26;;;;;;;4.22;2.55;;;;;;;12.04;46.24;99853.70;1815734;79;21116;-80
2021/04/03 02:59:55;;;;;;;3.50;2.50;;;;;;;12.01;46.31;99856.73;1734972;80;21133;-81
2021/04/03 03:02:24;;;;;;;3.45;2.47;;;;;;;11.96;46.41;99848.91;1816023;79;21049;-79
2021/04/03 03:04:53;;;;;;;2.70;2.50;;;;;;;11.95;46.55;99849.42;1787465;80;21010;-79
2021/04/03 03:07:24;;;;;;;3.02;2.60;;;;;;;11.96;46.59;99855.11;1786903;79;21486;-80
2021/04/03 03:09:53;;;;;;;3.08;2.70;;;;;;;11.98;46.50;99850.38;1816049;79;21146;-80
2021/04/03 03:12:24;;;;;;;3.20;2.65;;;;;;;11.99;46.58;99854.76;1814658;78;21193;-79
2021/04/03 03:14:52;;;;;;;4.50;2.70;;;;;;;12.01;46.61;99855.91;1786216;79;21146;-80
2021/04/03 03:17:20;;;;;;;4.08;3.30;;;;;;;12.00;46.58;99861.79;1814927;77;21182;-81
2021/04/03 03:19:50;;;;;;;4.03;3.27;;;;;;;11.99;46.61;99860.12;1761161;79;21160;-80
2021/04/03 03:22:18;;;;;;;4.03;3.33;;;;;;;12.00;46.61;99865.81;1786511;80;21200;-77
2021/04/03 03:24:45;;;;;;;3.98;3.17;;;;;;;12.01;46.61;99861.28;1785899;79;21180;-79
2021/04/03 03:27:13;;;;;;;3.70;3.02;;;;;;;11.99;46.61;99861.47;1759054;80;21072;-79
2021/04/03 03:29:42;;;;;;;3.70;3.02;;;;;;;11.96;46.57;99859.65;1786246;80;21184;-78
2021/04/03 03:32:10;;;;;;;3.22;2.90;;;;;;;11.94;46.74;99857.13;1785336;79;21217;-78
2021/04/03 03:34:39;;;;;;;5.35;3.20;;;;;;;11.97;46.72;99854.60;1813357;79;21193;-78
2021/04/03 03:37:09;;;;;;;6.72;4.72;;;;;;;11.97;46.66;99848.72;1785338;79;21187;-78
2021/04/03 03:39:39;;;;;;;4.30;3.90;;;;;;;11.98;46.71;99847.70;1813660;79;21212;-79
2021/04/03 03:42:09;;;;;;;4.00;3.62;;;;;;;11.98;46.66;99850.38;1785966;80;21191;-80
2021/04/03 03:44:38;;;;;;;4.10;3.70;;;;;;;12.00;46.56;99856.42;1784968;79;21173;-79
2021/04/03 03:47:07;;;;;;;4.17;3.20;;;;;;;11.99;46.50;99858.78;1814735;79;21222;-79
2021/04/03 03:49:35;;;;;;;4.08;3.10;;;;;;;11.96;46.57;99860.48;1785393;80;21232;-77
2021/04/03 03:52:06;;;;;;;3.98;3.17;;;;;;;11.92;46.52;99871.25;1785974;79;21213;-80
2021/04/03 03:54:35;;;;;;;5.42;3.62;;;;;;;11.89;46.71;99867.58;1814037;79;21199;-78
2021/04/03 03:57:03;;;;;;;5.67;3.90;;;;;;;11.89;46.74;99869.75;1757461;80;21204;-79
2021/04/03 03:59:31;;;;;;;4.67;3.40;;;;;;;11.87;46.80;99872.30;1785409;80;21187;-78
2021/04/03 04:01:58;;;;;;;5.25;3.62;;;;;;;11.84;46.75;99865.44;1785732;80;21607;-79
2021/04/03 04:04:26;;;;;;;8.13;4.78;;;;;;;11.85;46.80;99867.09;1809757;78;21665;-77
2021/04/03 04:06:55;;;;;;;6.80;4.20;;;;;;;11.87;46.80;99873.64;1811895;79;21683;-76
2021/04/03 04:09:25;;;;;;;8.40;4.53;;;;;;;11.87;46.83;99874.98;1815143;78;21627;-78
2021/04/03 04:11:55;;;;;;;6.60;4.22;;;;;;;11.86;46.84;99882.20;1815040;79;21193;-78
2021/04/03 04:14:24;;;;;;;4.97;3.92;;;;;;;11.87;46.85;99880.35;1814355;79;21066;-78
2021/04/03 04:16:53;;;;;;;5.40;4.62;;;;;;;11.86;46.99;99880.86;1812832;79;21675;-78
2021/04/03 04:19:22;;;;;;;6.97;4.08;;;;;;;11.88;47.01;99882.02;1790320;78;21200;-78
2021/04/03 04:21:50;;;;;;;6.05;4.53;;;;;;;11.89;46.99;99880.99;1771035;80;21126;-80
2021/04/03 04:24:18;;;;;;;7.05;5.30;;;;;;;11.88;46.98;99882.02;1802348;78;21674;-79
2021/04/03 04:26:46;;;;;;;6.42;4.50;;;;;;;11.89;47.05;99869.75;1797259;79;21236;-79
2021/04/03 04:29:13;;;;;;;8.48;5.67;;;;;;;11.93;46.96;99872.91;1796809;79;21192;-79
2021/04/03 04:31:41;;;;;;;6.25;4.87;;;;;;;11.96;46.91;99872.56;1767960;79;21193;-79
2021/04/03 04:34:10;;;;;;;6.37;5.12;;;;;;;11.99;46.92;99878.91;1796373;79;21165;-82
2021/04/03 04:36:38;;;;;;;8.28;5.40;;;;;;;12.02;46.83;99875.84;1797779;79;21671;-83
2021/04/03 04:39:07;;;;;;;7.75;5.53;;;;;;;12.06;46.80;99874.47;1797781;79;21667;-81
2021/04/03 04:41:37;;;;;;;6.97;5.50;;;;;;;12.07;46.71;99877.47;1799222;79;21149;-81
2021/04/03 04:44:05;;;;;;;6.90;6.08;;;;;;;12.11;46.72;99869.39;1797960;79;21140;-81
2021/04/03 04:46:32;;;;;;;8.40;6.10;;;;;;;12.15;46.76;99873.89;1808917;78;21184;-79
2021/04/03 04:49:01;;;;;;;8.20;6.58;;;;;;;12.16;46.74;99869.67;1829733;78;21171;-80
2021/04/03 04:51:29;;;;;;;8.45;6.90;;;;;;;12.20;46.78;99870.14;1794547;78;21171;-81
2021/04/03 04:54:02;;;;;;;11.70;7.35;;;;;;;12.25;46.85;99865.05;1828556;78;21192;-82
2021/04/03 04:56:32;;;;;;;9.93;8.18;;;;;;;12.30;46.91;99869.88;1829884;78;21156;-80
2021/04/03 04:59:00;;;;;;;10.48;8.55;;;;;;;12.32;47.03;99856.60;1830125;78;21177;-81
2021/04/03 05:01:29;;;;;;;10.55;8.40;;;;;;;12.39;47.02;99862.05;1830220;78;21172;-82
2021/04/03 05:03:57;;;;;;;12.53;7.60;;;;;;;12.43;47.07;99858.81;1830284;78;21741;-83
2021/04/03 05:06:24;;;;;;;10.93;8.38;;;;;;;12.50;47.19;99852.72;1831571;78;21204;-83
2021/04/03 05:08:52;;;;;;;12.13;8.75;;;;;;;12.58;47.21;99853.47;1831192;78;21238;-83
2021/04/03 05:11:18;;;;;;;;;;;;;;;12.70;47.16;99858.67;1821541;78;21176;-78
2021/04/03 05:13:46;;;;;;;11.33;9.00;;;;;;;12.78;47.00;99862.29;1797825;78;20273;-82
2021/04/03 05:16:15;;;;;;;12.43;8.73;;;;;;;12.81;46.93;99860.06;1796567;79;21192;-82
2021/04/03 05:18:42;;;;;;;11.85;8.98;;;;;;;12.86;46.89;99861.68;1767678;79;21181;-81
2021/04/03 05:21:09;;;;;;;11.25;8.55;;;;;;;12.92;46.81;99858.23;1796002;79;21172;-79
2021/04/03 05:23:36;;;;;;;;;;;;;;;13.02;46.83;99863.82;1798770;79;21698;-78
2021/04/03 05:26:03;;;;;;;12.45;9.05;;;;;;;13.10;46.54;99853.80;1795555;79;20304;-80
2021/04/03 05:28:31;;;;;;;12.82;9.75;;;;;;;13.17;46.52;99860.09;1795746;79;21164;-80
2021/04/03 05:30:58;;;;;;;12.60;9.23;;;;;;;13.28;46.42;99853.92;1797583;79;21592;-82
2021/04/03 05:33:25;;;;;;;10.88;8.95;;;;;;;13.36;46.33;99857.84;1797819;79;21112;-83
2021/04/03 05:35:52;;;;;;;;;;;;;;;13.42;46.17;99862.45;1800314;79;21100;-79
2021/04/03 05:38:20;;;;;;;13.03;9.65;;;;;;;13.52;46.10;99868.85;1797236;79;20265;-81
2021/04/03 05:40:48;;;;;;;13.32;9.93;;;;;;;13.58;45.96;99868.94;1796584;79;21227;-80
2021/04/03 05:43:16;;;;;;;12.78;9.55;;;;;;;13.68;45.80;99877.52;1796582;79;21168;-80
2021/04/03 05:45:44;;;;;;;11.93;9.60;;;;;;;13.75;45.77;99882.95;1767354;79;21219;-80
2021/04/03 05:48:12;;;;;;;11.93;9.00;;;;;;;13.78;45.55;99891.99;1819807;78;21400;-81
2021/04/03 05:50:40;;;;;;;14.45;9.13;;;;;;;13.83;45.28;99899.48;1771097;78;21212;-80
2021/04/03 05:53:08;;;;;;;13.50;8.85;;;;;;;13.82;44.95;99904.05;1827604;78;21136;-79
2021/04/03 05:55:36;;;;;;;13.50;9.05;;;;;;;13.80;44.58;99907.42;1827170;78;21639;-82
2021/04/03 05:58:05;;;;;;;11.38;9.05;;;;;;;13.74;45.06;99905.52;1830560;78;21192;-82
2021/04/03 06:00:32;;;;;;;12.90;9.03;;;;;;;13.74;45.18;99899.30;1799819;78;21156;-83
2021/04/03 06:02:59;;;;;;;11.75;8.40;;;;;;;13.79;45.08;99898.20;1817762;78;21176;-80
2021/04/03 06:05:27;;;;;;;10.50;8.48;;;;;;;13.84;45.07;99902.49;1794810;79;21184;-81
2021/04/03 06:07:54;;;;;;;13.55;8.75;;;;;;;13.92;44.79;99906.41;1794138;79;21211;-80
2021/04/03 06:10:22;;;;;;;11.20;7.95;;;;;;;14.03;44.76;99911.77;1803864;78;21185;-81
2021/04/03 06:12:50;;;;;;;10.88;8.68;;;;;;;14.10;44.45;99904.08;1787083;80;21185;-82
2021/04/03 06:15:35;;;;;;;12.10;8.90;;;;;;;14.18;44.25;99914.72;1819351;78;21209;-82
2021/04/03 06:18:10;;;;;;;14.00;9.13;;;;;;;14.23;44.13;99915.48;1819290;78;21212;-79
2021/04/03 06:20:42;;;;;;;10.25;8.30;;;;;;;14.33;44.10;99919.18;1788582;79;21193;-78
2021/04/03 06:23:10;;;;;;;9.68;7.70;;;;;;;14.44;43.76;99922.18;1812524;78;21204;-80
2021/04/03 06:25:58;;;;;;;10.28;7.78;;;;;;;14.53;43.46;99922.86;1836435;77;21657;-79
2021/04/03 06:28:29;;;;;;;10.75;8.43;;;;;;;14.63;43.39;99928.77;1797612;78;21197;-81
2021/04/03 06:31:00;;;;;;;10.70;7.58;;;;;;;14.80;43.08;99932.47;1797170;79;21193;-81
2021/04/03 06:33:28;;;;;;;10.75;7.87;;;;;;;14.90;42.85;99935.67;1799821;78;21204;-84
2021/04/03 06:36:10;;;;;;;10.23;7.35;;;;;;;15.03;42.50;99933.02;1827697;78;21212;-83
2021/04/03 06:38:39;;;;;;;8.75;7.12;;;;;;;15.18;42.10;99936.42;1796724;79;21789;-81
2021/04/03 06:41:23;;;;;;;10.30;8.38;;;;;;;15.32;41.66;99941.88;1768954;79;21109;-80
2021/04/03 06:44:08;;;;;;;10.88;8.15;;;;;;;15.41;41.46;99939.31;1796242;79;21185;-80
2021/04/03 06:46:40;;;;;;;12.15;9.35;;;;;;;15.54;41.21;99941.23;1803427;77;21225;-82
2021/04/03 06:49:08;;;;;;;14.13;11.73;;;;;;;15.62;41.08;99937.80;1816205;78;21184;-79
2021/04/03 06:51:36;;;;;;;14.13;9.18;;;;;;;15.75;41.00;99953.77;1828179;78;21215;-84
2021/04/03 06:54:05;;;;;;;13.15;8.18;;;;;;;15.85;40.86;99944.73;1829001;78;21172;-80
2021/04/03 06:56:35;;;;;;;9.43;6.67;;;;;;;15.93;40.33;99949.95;1828991;78;21562;-78
2021/04/03 06:59:11;;;;;;;9.83;6.72;;;;;;;15.95;39.97;99939.80;1829951;78;21188;-82
2021/04/03 07:01:51;;;;;;;10.03;6.87;;;;;;;15.92;39.74;99938.32;1829254;78;21176;-81
2021/04/03 07:04:42;;;;;;;9.73;6.08;;;;;;;16.04;39.93;99947.19;1829801;78;21101;-84
2021/04/03 07:07:09;;;;;;;8.38;6.47;;;;;;;16.21;39.31;99950.63;1785836;78;21205;-78
2021/04/03 07:09:38;;;;;;;9.73;6.42;;;;;;;16.39;38.56;99951.85;1828117;78;21165;-79
2021/04/03 07:12:11;;;;;;;10.65;6.40;;;;;;;16.53;38.50;99952.15;1804773;78;21177;-83
2021/04/03 07:14:38;;;;;;;8.53;6.15;;;;;;;16.76;38.34;99953.61;1803080;78;21188;-79
2021/04/03 07:17:06;;;;;;;7.53;5.60;;;;;;;16.97;38.08;99957.42;1771159;79;21204;-77
2021/04/03 07:19:33;;;;;;;7.20;5.62;;;;;;;17.16;37.56;99951.64;1800482;79;21129;-81
2021/04/03 07:22:04;;;;;;;8.95;5.40;;;;;;;17.35;37.30;99953.95;1798366;79;21161;-79
2021/04/03 07:24:33;;;;;;;6.92;5.80;;;;;;;17.55;36.67;99960.13;1814353;79;21205;-81
2021/04/03 07:27:02;;;;;;;9.53;5.40;;;;;;;17.73;36.35;99960.77;1813946;79;21171;-80
2021/04/03 07:29:50;;;;;;;7.10;5.33;;;;;;;17.94;35.94;99969.09;1814322;79;21255;-81
2021/04/03 07:32:37;;;;;;;8.55;4.90;;;;;;;18.13;35.64;99974.93;1784631;79;21186;-81
2021/04/03 07:35:23;;;;;;;7.65;4.75;;;;;;;18.34;35.05;99971.53;1758098;80;21209;-83
2021/04/03 07:37:53;;;;;;;4.92;4.33;;;;;;;18.50;34.26;99975.06;1813466;79;21162;-80
2021/04/03 07:40:30;;;;;;;7.42;4.35;;;;;;;18.65;33.87;99974.72;1813529;79;21170;-80
2021/04/03 07:42:58;;;;;;;6.53;4.25;;;;;;;18.79;33.19;99973.56;1844767;77;21184;-80
2021/04/03 07:45:43;;;;;;;7.15;3.75;;;;;;;18.91;33.18;99977.73;1813377;79;21209;-78
2021/04/03 07:48:24;;;;;;;6.47;4.55;;;;;;;19.07;32.88;99987.98;1817167;78;21648;-80
2021/04/03 07:50:49;;;;;;;7.47;3.90;;;;;;;19.22;32.56;99985.75;1808242;78;21184;-80
2021/04/03 07:53:41;;;;;;;5.08;4.17;;;;;;;19.37;32.38;99986.72;1810039;79;21213;-80
2021/04/03 07:56:14;;;;;;;4.55;3.60;;;;;;;19.49;31.96;99988.98;1815370;78;21160;-79
2021/04/03 07:58:56;;;;;;;6.90;3.55;;;;;;;19.61;31.48;99984.98;1814111;78;21730;-80
2021/04/03 08:01:26;;;;;;;4.20;3.10;;;;;;;19.72;31.28;99976.07;1810130;79;21208;-81
2021/04/03 08:04:04;;;;;;;4.75;3.55;;;;;;;19.85;30.88;99984.58;1813923;79;21205;-81
2021/04/03 08:06:34;;;;;;;3.92;2.60;;;;;;;19.95;30.63;99985.37;1812956;77;21158;-77
2021/04/03 08:09:10;;;;;;;6.53;3.20;;;;;;;20.07;30.16;99990.84;1811854;77;21143;-78
2021/04/03 08:11:38;;;;;;;4.42;2.77;;;;;;;20.19;29.62;99990.34;1813362;79;21200;-79
2021/04/03 08:14:05;;;;;;;4.37;3.22;;;;;;;20.27;29.28;99994.92;1812692;79;21754;-80
2021/04/03 08:16:32;;;;;;;3.37;2.72;;;;;;;20.34;28.84;99996.70;1816552;77;21153;-77
2021/04/03 08:19:01;;;;;;;3.70;2.40;;;;;;;20.38;28.64;99986.48;1794082;79;21181;-82
2021/04/03 08:21:29;;;;;;;3.58;2.20;;;;;;;20.45;28.30;99987.75;1738400;79;21713;-80
2021/04/03 08:23:57;;;;;;;2.75;2.10;;;;;;;20.53;28.03;99992.89;1793870;78;21196;-82
2021/04/03 08:26:27;;;;;;;2.75;2.10;;;;;;;20.64;27.85;99992.05;1801823;78;21477;-80
2021/04/03 08:28:56;;;;;;;5.42;2.52;;;;;;;20.70;27.31;99990.27;1793234;79;21216;-79
2021/04/03 08:31:28;;;;;;;2.95;2.25;;;;;;;20.72;27.18;99998.52;1792939;79;21687;-79
2021/04/03 08:33:57;;;;;;;9.83;7.17;;;;;;;20.75;27.19;99993.94;1815297;79;21184;-80
2021/04/03 08:36:34;;;;;;;3.95;2.87;;;;;;;20.83;27.08;99993.30;1783986;80;21200;-77
2021/04/03 08:39:09;;;;;;;6.92;5.05;;;;;;;20.85;26.74;99996.60;1815673;79;21100;-79
2021/04/03 08:41:39;;;;;;;4.12;2.75;;;;;;;20.87;26.32;99996.67;1784926;80;21647;-80
2021/04/03 08:44:22;;;;;;;2.70;2.20;;;;;;;20.92;26.09;99995.97;1816654;79;21204;-82
2021/04/03 08:46:53;;;;;;;3.30;2.52;;;;;;;20.93;26.17;99998.98;1784933;80;21897;-79
2021/04/03 08:49:26;;;;;;;4.65;2.72;;;;;;;20.94;26.23;100003.37;1786732;79;21391;-81
2021/04/03 08:51:54;;;;;;;8.60;6.20;;;;;;;20.94;26.22;99998.76;1785072;80;21232;-85
2021/04/03 08:54:21;;;;;;;6.58;2.50;;;;;;;20.93;26.11;99994.36;1795522;77;21173;-79
2021/04/03 08:56:48;;;;;;;;;;;;;;;20.93;25.54;99994.36;1768634;80;21216;-80
2021/04/03 08:59:20;;;;;;;3.20;2.02;;;;;;;20.91;25.55;100002.48;1806866;79;20565;-79
2021/04/03 09:01:50;;;;;;;3.33;1.70;;;;;;;20.81;25.53;100000.89;1778389;79;21188;-80
2021/04/03 09:04:19;;;;;;;4.65;2.12;;;;;;;20.74;25.59;100000.45;1807630;79;21134;-81
2021/04/03 09:06:55;;;;;;;10.63;7.25;;;;;;;20.72;25.59;100008.04;1807506;79;21102;-82
2021/04/03 09:09:25;;;;;;;6.07;2.90;;;;;;;20.63;25.67;100010.81;1807920;79;21133;-79
2021/04/03 09:12:03;;;;;;;3.60;2.30;;;;;;;20.54;26.17;100017.66;1804736;79;21113;-82
2021/04/03 09:14:35;;;;;;;2.22;1.70;;;;;;;20.49;26.05;100028.42;1809852;79;21105;-80
2021/04/03 09:17:21;;;;;;;5.40;1.70;;;;;;;20.43;25.88;100026.58;1813673;78;21237;-82
2021/04/03 09:19:48;;;;;;;3.62;1.80;;;;;;;20.35;25.52;100027.77;1801433;79;21110;-83
2021/04/03 09:22:18;;;;;;;1.80;1.50;;;;;;;20.18;25.76;100025.41;1809466;78;21125;-80
2021/04/03 09:24:47;;;;;;;3.20;1.82;;;;;;;20.09;25.72;100035.78;1836546;78;21568;-79
2021/04/03 09:27:17;;;;;;;4.85;1.40;;;;;;;19.97;25.46;100028.09;1829618;77;21123;-80
2021/04/03 09:29:47;;;;;;;2.22;1.47;;;;;;;19.88;25.75;100025.41;1801615;78;21137;-78
2021/04/03 09:32:16;;;;;;;1.95;1.50;;;;;;;19.73;25.64;100030.72;1809726;78;21136;-79
2021/04/03 09:34:44;;;;;;;2.47;1.75;;;;;;;19.59;25.81;100033.27;1832735;77;21113;-82
2021/04/03 09:37:18;;;;;;;2.70;2.00;;;;;;;19.45;26.15;100030.41;1817462;78;21089;-79
2021/04/03 09:39:55;;;;;;;10.43;2.60;;;;;;;19.37;26.27;100027.98;1829451;78;21108;-81
2021/04/03 09:42:24;;;;;;;3.87;2.50;;;;;;;19.30;26.48;100022.62;1812946;79;21613;-79
2021/04/03 09:44:51;;;;;;;2.05;1.47;;;;;;;19.25;26.25;100014.32;1785467;79;21165;-80
2021/04/03 09:47:19;;;;;;;1.30;1.07;;;;;;;19.18;26.32;100019.02;1812236;79;21106;-79
2021/04/03 09:49:46;;;;;;;;;;;;;;;19.10;26.35;100023.37;1811551;78;21681;-77
2021/04/03 09:52:14;;;;;;;5.03;1.62;;;;;;;19.02;26.38;100028.55;1780157;80;20258;-79
2021/04/03 09:54:43;;;;;;;3.02;1.95;;;;;;;18.92;26.40;100025.53;1816712;78;21093;-80
2021/04/03 09:57:10;;;;;;;1.80;1.35;;;;;;;18.88;26.92;100021.59;1813884;79;21098;-78
2021/04/03 09:59:39;;;;;;;2.72;1.40;;;;;;;18.85;26.95;100025.60;1818684;77;21113;-80
2021/04/03 10:02:07;;;;;;;3.25;1.37;;;;;;;18.81;26.53;100027.63;1824876;77;21113;-80
2021/04/03 10:04:34;;;;;;;1.67;1.17;;;;;;;18.79;26.74;100031.08;1817357;78;21440;-81
2021/04/03 10:07:01;;;;;;;1.92;1.22;;;;;;;18.73;26.58;100029.55;1783173;80;21732;-79
2021/04/03 10:09:30;;;;;;;3.45;1.70;;;;;;;18.66;26.35;100027.91;1811515;77;21109;-80
2021/04/03 10:12:00;;;;;;;2.40;1.27;;;;;;;18.58;26.43;100023.61;1797799;79;21197;-79
2021/04/03 10:14:27;;;;;;;3.02;1.25;;;;;;;18.52;26.84;100012.27;1795200;79;21679;-79
2021/04/03 10:16:56;;;;;;;3.10;1.70;;;;;;;18.50;26.92;100013.03;1796077;79;21569;-78
2021/04/03 10:19:23;;;;;;;;;;;;;;;18.39;26.86;100012.37;1786745;78;21168;-80
2021/04/03 10:21:50;;;;;;;2.20;1.50;;;;;;;18.33;26.89;100011.91;1800198;78;20293;-81
2021/04/03 10:24:17;;;;;;;1.20;1.10;;;;;;;18.29;27.01;100014.22;1799999;78;21702;-79
2021/04/03 10:26:45;;;;;;;1.95;0.93;;;;;;;18.28;26.39;100019.87;1827617;77;21209;-79
2021/04/03 10:29:13;;;;;;;2.85;1.12;;;;;;;18.20;26.17;100006.87;1834432;77;21720;-78
2021/04/03 10:31:40;;;;;;;2.00;1.57;;;;;;;18.16;26.16;100019.73;1815599;79;21186;-79
2021/04/03 10:34:07;;;;;;;2.00;1.32;;;;;;;18.10;26.40;100013.30;1818734;77;21165;-81
2021/04/03 10:36:35;;;;;;;1.62;1.10;;;;;;;18.07;26.47;100017.80;1785745;77;21670;-81
2021/04/03 10:39:07;;;;;;;3.50;1.95;;;;;;;18.12;26.54;100021.21;1808771;78;21177;-78
2021/04/03 10:41:39;;;;;;;1.92;0.95;;;;;;;18.12;26.56;100017.14;1785238;80;21617;-80
2021/04/03 10:44:07;;;;;;;2.98;1.45;;;;;;;18.09;26.34;100023.02;1799361;78;21244;-80
2021/04/03 10:46:34;;;;;;;3.27;1.20;;;;;;;18.04;26.56;100016.90;1775331;79;21502;-79
2021/04/03 10:49:03;;;;;;;2.65;1.40;;;;;;;18.03;26.87;100019.28;1778426;80;21800;-79
2021/04/03 10:51:31;;;;;;;3.47;1.20;;;;;;;18.03;27.00;100018.45;1746657;81;21161;-83
2021/04/03 10:53:59;;;;;;;3.25;1.05;;;;;;;18.05;26.67;100025.86;1793086;79;21532;-80
2021/04/03 10:56:26;;;;;;;3.20;1.72;;;;;;;18.04;26.59;100018.25;1828346;78;21746;-79
2021/04/03 10:58:53;;;;;;;3.37;1.70;;;;;;;18.03;26.36;100018.45;1828047;78;21153;-78
2021/04/03 11:01:21;;;;;;;3.55;1.47;;;;;;;18.03;26.05;100015.21;1828988;78;21168;-83
2021/04/03 11:03:49;;;;;;;2.62;1.15;;;;;;;18.02;26.10;100010.84;1827713;78;21199;-79
2021/04/03 11:06:16;;;;;;;;;;;;;;;18.03;25.93;100009.80;1813783;79;21177;-81
2021/04/03 11:08:44;;;;;;;2.55;0.98;;;;;;;18.02;25.56;100007.31;1812801;78;20279;-79
2021/04/03 11:11:11;;;;;;;1.72;1.25;;;;;;;17.96;25.52;100008.48;1818285;77;21208;-80
2021/04/03 11:13:41;;;;;;;5.58;1.75;;;;;;;17.91;25.58;100014.27;1846198;77;21156;-81
2021/04/03 11:16:09;;;;;;;3.55;1.32;;;;;;;17.89;25.80;100017.70;1838436;77;21166;-81
2021/04/03 11:18:36;;;;;;;2.37;1.20;;;;;;;17.88;25.81;100016.04;1798771;78;21195;-81
2021/04/03 11:21:05;;;;;;;2.12;1.30;;;;;;;17.84;25.69;100021.58;1784639;79;21455;-80
2021/04/03 11:23:32;;;;;;;2.22;1.42;;;;;;;17.81;25.48;100008.48;1792938;79;21224;-82
2021/04/03 11:25:59;;;;;;;2.08;1.35;;;;;;;17.78;25.49;100008.38;1790577;79;21156;-82
2021/04/03 11:28:26;;;;;;;1.22;1.12;;;;;;;17.74;25.59;100007.98;1806114;78;21184;-79
2021/04/03 11:30:53;;;;;;;;;;;;;;;17.74;25.29;100010.69;1783108;77;21175;-80
2021/04/03 11:33:21;;;;;;;4.53;1.10;;;;;;;17.72;25.27;100014.12;1812886;79;20271;-80
2021/04/03 11:35:50;;;;;;;2.08;1.22;;;;;;;17.68;25.28;100011.53;1811951;78;21173;-80
2021/04/03 11:38:21;;;;;;;1.67;1.00;;;;;;;17.67;25.37;100011.23;1817089;78;21161;-79
2021/04/03 11:40:48;;;;;;;1.70;0.98;;;;;;;17.65;25.25;100017.36;1792365;78;21267;-79
2021/04/03 11:43:18;;;;;;;2.58;1.35;;;;;;;17.62;25.39;100021.02;1840831;77;21249;-81
2021/04/03 11:45:46;;;;;;;2.90;1.12;;;;;;;17.62;25.11;100022.38;1801962;79;21177;-81
2021/04/03 11:48:13;;;;;;;2.30;1.17;;;;;;;17.59;25.20;100026.36;1828083;78;21181;-78
2021/04/03 11:50:41;;;;;;;1.72;1.17;;;;;;;17.58;25.20;100022.00;1808717;78;21511;-79